Time;durP1;ratioP1;P1;durP2;ratioP2;P2;SDS_P1;SDS_P2;PMS_P1;PMS_P2;Temp;Humidity;BMP_temperature;BMP_pressure;BME280_temperature;BME280_humidity;BME280_pressure;Samples;Min_cycle;Max_cycle;Signal;HPM_P1;HPM_P2
2023/06/06 00:00:30;;;;;;;0.20;0.20;;;7.70;99.90;;;;;;5035539;28;20068;-75
2023/06/06 00:02:56;;;;;;;0.20;0.20;;;7.70;99.90;;;;;;5035416;28;20029;-75
2023/06/06 00:05:25;;;;;;;0.20;0.20;;;7.60;99.90;;;;;;5034700;28;20438;-75
2023/06/06 00:07:52;;;;;;;0.20;0.20;;;7.60;99.90;;;;;;5035383;28;20560;-75
2023/06/06 00:10:18;;;;;;;0.20;0.20;;;7.50;99.90;;;;;;5035573;28;20394;-75
2023/06/06 00:12:45;;;;;;;0.20;0.20;;;7.50;99.90;;;;;;5033632;28;20017;-75
2023/06/06 00:15:12;;;;;;;0.20;0.20;;;7.40;99.90;;;;;;5035621;28;20479;-75
2023/06/06 00:17:39;;;;;;;0.20;0.20;;;7.30;99.90;;;;;;5035300;28;20083;-75
2023/06/06 00:20:06;;;;;;;0.20;0.20;;;7.40;99.90;;;;;;5034735;28;20032;-75
2023/06/06 00:22:32;;;;;;;0.10;0.10;;;7.30;99.90;;;;;;5033702;28;20095;-75
2023/06/06 00:24:58;;;;;;;0.20;0.20;;;7.20;99.90;;;;;;5034461;28;20060;-75
2023/06/06 00:27:24;;;;;;;0.20;0.20;;;7.20;99.90;;;;;;5035030;28;20033;-76
2023/06/06 00:29:49;;;;;;;0.13;0.13;;;7.10;99.90;;;;;;5034674;28;20033;-75
2023/06/06 00:32:15;;;;;;;0.20;0.20;;;7.10;99.90;;;;;;5034973;28;20062;-75
2023/06/06 00:34:40;;;;;;;0.22;0.22;;;7.20;99.90;;;;;;5034444;28;20026;-75
2023/06/06 00:37:06;;;;;;;0.20;0.20;;;7.30;99.90;;;;;;5034790;28;20108;-75
2023/06/06 00:39:31;;;;;;;0.20;0.20;;;7.30;99.90;;;;;;5034535;28;20029;-75
2023/06/06 00:41:57;;;;;;;0.15;0.15;;;7.30;99.90;;;;;;5034522;28;20030;-75
2023/06/06 00:44:22;;;;;;;0.30;0.30;;;7.30;99.90;;;;;;5034323;28;20028;-74
2023/06/06 00:46:48;;;;;;;0.30;0.30;;;7.20;99.90;;;;;;5032938;28;20018;-75
2023/06/06 00:49:15;;;;;;;0.20;0.20;;;7.10;99.90;;;;;;5033365;28;20079;-75
2023/06/06 00:51:42;;;;;;;0.20;0.20;;;7.10;99.90;;;;;;5034395;28;20033;-75
2023/06/06 00:54:13;;;;;;;0.17;0.17;;;7.20;99.90;;;;;;5034163;28;20057;-75
2023/06/06 00:56:43;;;;;;;0.20;0.20;;;7.20;99.90;;;;;;5034263;28;20022;-74
2023/06/06 00:59:10;;;;;;;0.20;0.20;;;7.20;99.90;;;;;;5034743;28;20018;-74
2023/06/06 01:01:38;;;;;;;0.20;0.20;;;7.10;99.90;;;;;;5034360;28;20021;-74
2023/06/06 01:04:07;;;;;;;0.20;0.20;;;7.20;99.90;;;;;;5033932;28;20091;-75
2023/06/06 01:06:34;;;;;;;0.20;0.20;;;7.30;99.90;;;;;;5034068;28;20038;-75
2023/06/06 01:09:04;;;;;;;0.20;0.20;;;7.20;99.90;;;;;;5033062;28;20029;-75
2023/06/06 01:11:35;;;;;;;0.20;0.20;;;7.20;99.90;;;;;;5033727;28;20552;-75
2023/06/06 01:14:11;;;;;;;0.10;0.10;;;7.30;99.90;;;;;;5034180;28;20096;-75
2023/06/06 01:16:39;;;;;;;0.20;0.20;;;7.30;99.90;;;;;;5032822;28;20028;-75
2023/06/06 01:19:11;;;;;;;0.20;0.20;;;7.30;99.90;;;;;;5033913;28;20025;-76
2023/06/06 01:21:44;;;;;;;0.10;0.10;;;7.20;99.90;;;;;;5033816;28;20029;-75
2023/06/06 01:24:10;;;;;;;0.20;0.20;;;7.30;99.90;;;;;;5033837;28;20025;-75
2023/06/06 01:26:35;;;;;;;0.20;0.20;;;7.30;99.90;;;;;;5033837;28;20028;-75
2023/06/06 01:29:01;;;;;;;0.20;0.20;;;7.30;99.90;;;;;;5033561;28;20026;-75
2023/06/06 01:31:34;;;;;;;0.20;0.20;;;7.30;99.90;;;;;;5033593;28;20569;-76
2023/06/06 01:34:05;;;;;;;;;;;7.30;99.90;;;;;;5034328;28;20033;-75
2023/06/06 01:36:56;;;;;;;0.20;0.20;;;7.30;99.90;;;;;;5033596;28;20015;-75
2023/06/06 01:39:24;;;;;;;0.25;0.25;;;7.10;99.90;;;;;;5034365;28;20036;-76
2023/06/06 01:41:55;;;;;;;0.20;0.20;;;7.20;99.90;;;;;;5033441;28;20033;-75
2023/06/06 01:44:22;;;;;;;0.13;0.13;;;7.10;99.90;;;;;;5033290;28;20018;-75
2023/06/06 01:46:47;;;;;;;0.20;0.20;;;7.10;99.90;;;;;;5033464;28;20029;-75
2023/06/06 01:49:15;;;;;;;0.15;0.15;;;7.10;99.90;;;;;;5033165;28;20109;-75
2023/06/06 01:51:41;;;;;;;0.20;0.20;;;7.30;99.90;;;;;;5033131;28;20124;-75
2023/06/06 01:54:06;;;;;;;0.20;0.20;;;7.50;99.90;;;;;;5033277;28;20096;-76
2023/06/06 01:56:33;;;;;;;0.28;0.28;;;7.60;99.90;;;;;;5032048;28;20496;-76
2023/06/06 01:59:00;;;;;;;0.20;0.20;;;7.70;99.90;;;;;;5033214;28;20390;-75
2023/06/06 02:01:26;;;;;;;0.30;0.30;;;7.70;99.90;;;;;;5031853;28;20079;-75
2023/06/06 02:03:51;;;;;;;0.20;0.20;;;7.80;99.90;;;;;;5033000;28;20029;-77
2023/06/06 02:06:19;;;;;;;0.20;0.20;;;7.80;99.90;;;;;;5033057;28;20108;-75
2023/06/06 02:08:47;;;;;;;0.10;0.10;;;7.90;99.90;;;;;;5033196;28;20394;-77
2023/06/06 02:11:13;;;;;;;0.10;0.10;;;7.90;99.90;;;;;;5032618;28;20017;-76
2023/06/06 02:13:38;;;;;;;0.20;0.20;;;7.90;99.90;;;;;;5031466;28;20033;-76
2023/06/06 02:16:04;;;;;;;0.20;0.20;;;8.00;99.90;;;;;;5033079;28;20041;-76
2023/06/06 02:18:30;;;;;;;0.22;0.22;;;8.00;99.90;;;;;;5032750;28;20075;-76
2023/06/06 02:20:55;;;;;;;0.20;0.20;;;8.00;99.90;;;;;;5031578;28;20036;-76
2023/06/06 02:23:21;;;;;;;0.10;0.10;;;8.00;99.90;;;;;;5032856;28;20021;-76
2023/06/06 02:25:48;;;;;;;0.17;0.17;;;8.10;99.90;;;;;;5033313;28;20028;-76
2023/06/06 02:28:14;;;;;;;0.20;0.20;;;8.10;99.90;;;;;;5031871;28;20451;-75
2023/06/06 02:30:40;;;;;;;0.10;0.10;;;8.10;99.90;;;;;;5032018;28;20025;-76
2023/06/06 02:33:06;;;;;;;0.15;0.15;;;8.10;99.90;;;;;;5031662;28;20555;-76
2023/06/06 02:35:31;;;;;;;0.10;0.10;;;8.10;99.90;;;;;;5031204;28;20025;-76
2023/06/06 02:37:57;;;;;;;0.10;0.10;;;8.10;99.90;;;;;;5032604;28;20072;-76
2023/06/06 02:40:23;;;;;;;0.10;0.10;;;8.20;99.90;;;;;;5032295;28;20041;-77
2023/06/06 02:42:48;;;;;;;0.20;0.20;;;8.10;99.90;;;;;;5031587;28;20026;-77
2023/06/06 02:45:14;;;;;;;0.10;0.10;;;8.20;99.90;;;;;;5032656;28;20100;-76
2023/06/06 02:47:40;;;;;;;0.10;0.10;;;8.20;99.90;;;;;;5032343;28;20053;-76
2023/06/06 02:50:07;;;;;;;0.15;0.15;;;8.20;99.90;;;;;;5031412;28;20052;-77
2023/06/06 02:52:32;;;;;;;0.15;0.15;;;8.20;99.90;;;;;;5032917;28;20029;-77
2023/06/06 02:54:58;;;;;;;0.20;0.20;;;8.20;99.90;;;;;;5031183;28;20031;-77
2023/06/06 02:57:24;;;;;;;0.10;0.10;;;8.20;99.90;;;;;;5032606;28;20041;-77
2023/06/06 02:59:50;;;;;;;0.20;0.20;;;8.30;99.90;;;;;;5032595;28;20018;-77
2023/06/06 03:02:16;;;;;;;0.20;0.20;;;8.30;99.90;;;;;;5031357;28;20013;-77
2023/06/06 03:04:43;;;;;;;0.10;0.10;;;8.30;99.90;;;;;;5032425;28;20047;-77
2023/06/06 03:07:10;;;;;;;0.20;0.20;;;8.30;99.90;;;;;;5032698;28;20021;-77
2023/06/06 03:09:36;;;;;;;0.10;0.10;;;8.30;99.90;;;;;;5032380;28;20029;-77
2023/06/06 03:12:02;;;;;;;0.20;0.20;;;8.30;99.90;;;;;;5032682;28;20032;-77
2023/06/06 03:14:27;;;;;;;0.20;0.20;;;8.30;99.90;;;;;;5032593;28;20029;-77
2023/06/06 03:16:55;;;;;;;0.15;0.15;;;8.30;99.90;;;;;;5032633;28;20032;-77
2023/06/06 03:19:21;;;;;;;0.20;0.20;;;8.40;99.90;;;;;;5032171;28;20100;-77
2023/06/06 03:21:46;;;;;;;0.20;0.20;;;8.40;99.90;;;;;;5032575;28;20049;-77
2023/06/06 03:24:13;;;;;;;0.20;0.20;;;8.40;99.90;;;;;;5031011;28;20018;-77
2023/06/06 03:26:39;;;;;;;0.20;0.20;;;8.50;99.90;;;;;;5032041;28;20431;-77
2023/06/06 03:29:05;;;;;;;0.20;0.20;;;8.50;99.90;;;;;;5032627;28;20025;-77
2023/06/06 03:31:31;;;;;;;0.20;0.20;;;8.50;99.90;;;;;;5032125;28;20109;-77
2023/06/06 03:33:57;;;;;;;0.20;0.20;;;8.60;99.90;;;;;;5032624;28;20057;-77
2023/06/06 03:36:23;;;;;;;0.15;0.15;;;8.50;99.90;;;;;;5031870;28;20442;-77
2023/06/06 03:38:48;;;;;;;0.28;0.28;;;8.50;99.90;;;;;;5033064;28;20026;-77
2023/06/06 03:41:14;;;;;;;0.20;0.20;;;8.50;99.90;;;;;;5035681;28;20073;-77
2023/06/06 03:43:43;;;;;;;0.10;0.10;;;8.60;99.90;;;;;;5035797;28;20040;-77
2023/06/06 03:46:09;;;;;;;0.20;0.20;;;8.60;99.90;;;;;;5035634;28;20021;-76
2023/06/06 03:48:34;;;;;;;0.20;0.20;;;8.70;99.90;;;;;;5034509;28;20036;-77
2023/06/06 03:51:00;;;;;;;0.20;0.20;;;8.70;99.90;;;;;;5035562;28;20029;-77
2023/06/06 03:53:25;;;;;;;0.20;0.20;;;8.70;99.90;;;;;;5035578;28;20021;-77
2023/06/06 03:55:51;;;;;;;0.10;0.10;;;8.80;99.90;;;;;;5035233;28;20048;-77
2023/06/06 03:58:18;;;;;;;0.20;0.20;;;8.80;99.90;;;;;;5035457;28;20356;-77
2023/06/06 04:00:45;;;;;;;0.25;0.25;;;8.80;99.90;;;;;;5035259;28;20101;-77
2023/06/06 04:03:11;;;;;;;0.13;0.13;;;8.90;99.90;;;;;;5035144;28;20056;-77
2023/06/06 04:05:36;;;;;;;0.20;0.20;;;9.00;99.90;;;;;;5034247;28;20025;-76
2023/06/06 04:08:02;;;;;;;0.20;0.20;;;9.10;99.90;;;;;;5035307;28;20446;-77
2023/06/06 04:10:28;;;;;;;0.20;0.20;;;9.10;99.90;;;;;;5034085;28;20021;-77
2023/06/06 04:12:53;;;;;;;0.20;0.20;;;9.20;99.90;;;;;;5035900;28;20036;-76
2023/06/06 04:15:19;;;;;;;0.20;0.20;;;9.20;99.90;;;;;;5036109;28;20017;-76
2023/06/06 04:17:45;;;;;;;0.10;0.10;;;9.20;99.90;;;;;;5035324;28;20022;-76
2023/06/06 04:20:11;;;;;;;0.10;0.10;;;9.20;99.90;;;;;;5035896;28;20382;-76
2023/06/06 04:22:38;;;;;;;0.15;0.15;;;9.20;99.90;;;;;;5035190;28;20047;-77
2023/06/06 04:25:04;;;;;;;0.20;0.20;;;9.30;99.90;;;;;;5035255;28;20112;-76
2023/06/06 04:27:31;;;;;;;0.20;0.20;;;9.40;99.90;;;;;;5033926;28;20030;-77
2023/06/06 04:29:58;;;;;;;0.17;0.17;;;9.40;99.90;;;;;;5035167;28;20021;-76
2023/06/06 04:32:24;;;;;;;0.17;0.17;;;9.50;99.90;;;;;;5035022;28;20100;-77
2023/06/06 04:34:51;;;;;;;0.20;0.20;;;9.50;99.90;;;;;;5035046;28;20144;-76
2023/06/06 04:37:18;;;;;;;0.10;0.10;;;9.60;99.90;;;;;;5034930;28;20017;-76
2023/06/06 04:39:44;;;;;;;0.20;0.20;;;9.60;99.90;;;;;;5034924;28;20017;-76
2023/06/06 04:42:10;;;;;;;0.10;0.10;;;9.60;99.90;;;;;;5034957;28;20402;-76
2023/06/06 04:44:41;;;;;;;0.20;0.20;;;9.60;99.90;;;;;;5035109;28;20228;-77
2023/06/06 04:47:08;;;;;;;0.20;0.20;;;9.70;99.90;;;;;;5035320;28;20382;-77
2023/06/06 04:49:35;;;;;;;0.20;0.20;;;9.70;99.90;;;;;;5034694;28;20116;-77
2023/06/06 04:52:12;;;;;;;0.20;0.20;;;9.70;99.90;;;;;;5034991;28;20025;-76
2023/06/06 04:54:39;;;;;;;0.10;0.10;;;9.60;99.90;;;;;;5033411;28;20025;-76
2023/06/06 04:57:07;;;;;;;0.20;0.20;;;9.60;99.90;;;;;;5034574;28;20494;-76
2023/06/06 04:59:33;;;;;;;0.20;0.20;;;9.60;99.90;;;;;;5033298;28;20432;-76
2023/06/06 05:02:01;;;;;;;0.10;0.10;;;9.70;99.90;;;;;;5034490;28;20014;-76
2023/06/06 05:04:29;;;;;;;0.20;0.20;;;9.80;99.90;;;;;;5034488;28;20022;-76
2023/06/06 05:06:58;;;;;;;0.10;0.10;;;10.00;99.90;;;;;;5034379;28;20487;-76
2023/06/06 05:09:24;;;;;;;0.20;0.20;;;10.00;99.90;;;;;;5034366;28;20095;-76
2023/06/06 05:11:52;;;;;;;0.20;0.20;;;10.00;99.90;;;;;;5034343;28;20029;-76
2023/06/06 05:14:23;;;;;;;0.20;0.20;;;10.00;99.90;;;;;;5032936;28;20026;-76
2023/06/06 05:16:51;;;;;;;0.15;0.15;;;10.10;99.90;;;;;;5034194;28;20055;-76
2023/06/06 05:19:16;;;;;;;0.10;0.10;;;10.20;99.90;;;;;;5034163;28;20562;-76
2023/06/06 05:21:42;;;;;;;0.17;0.17;;;10.30;99.90;;;;;;5034092;28;20083;-76
2023/06/06 05:24:08;;;;;;;0.20;0.20;;;10.30;99.90;;;;;;5034032;28;20387;-76
2023/06/06 05:26:33;;;;;;;0.20;0.20;;;10.30;99.90;;;;;;5034289;28;20033;-76
2023/06/06 05:29:00;;;;;;;0.10;0.10;;;10.30;99.90;;;;;;5033966;28;20029;-76
2023/06/06 05:31:25;;;;;;;0.15;0.15;;;10.20;99.90;;;;;;5034179;28;20029;-76
2023/06/06 05:33:51;;;;;;;0.20;0.20;;;10.20;99.90;;;;;;5032606;28;20399;-77
2023/06/06 05:36:16;;;;;;;0.20;0.20;;;10.20;99.90;;;;;;5033825;28;20029;-77
2023/06/06 05:38:42;;;;;;;0.20;0.20;;;10.30;99.90;;;;;;5033790;28;20053;-76
2023/06/06 05:41:07;;;;;;;0.20;0.20;;;10.40;99.90;;;;;;5033599;28;20030;-77
2023/06/06 05:43:33;;;;;;;0.20;0.20;;;10.50;99.90;;;;;;5033679;28;20029;-77
2023/06/06 05:46:01;;;;;;;0.20;0.20;;;10.60;99.90;;;;;;5033675;28;20026;-77
2023/06/06 05:48:26;;;;;;;0.17;0.17;;;10.50;99.90;;;;;;5033653;28;20060;-76
2023/06/06 05:50:52;;;;;;;0.20;0.20;;;10.60;99.90;;;;;;5032232;28;20483;-76
2023/06/06 05:53:17;;;;;;;0.10;0.10;;;10.60;99.90;;;;;;5033494;28;20037;-76
2023/06/06 05:55:43;;;;;;;0.20;0.20;;;10.70;99.90;;;;;;5032370;28;20025;-76
2023/06/06 05:58:08;;;;;;;0.17;0.17;;;10.80;99.90;;;;;;5033498;28;20026;-76
2023/06/06 06:00:35;;;;;;;0.13;0.13;;;10.80;99.90;;;;;;5033485;28;20549;-76
2023/06/06 06:03:01;;;;;;;0.20;0.20;;;10.90;99.90;;;;;;5032951;28;20475;-76
2023/06/06 06:05:28;;;;;;;0.20;0.20;;;10.90;99.90;;;;;;5032155;28;20072;-76
2023/06/06 06:08:01;;;;;;;0.20;0.20;;;10.90;99.90;;;;;;5033414;28;20026;-76
2023/06/06 06:10:31;;;;;;;0.20;0.20;;;10.90;99.90;;;;;;5032019;28;20021;-76
2023/06/06 06:12:57;;;;;;;0.10;0.10;;;10.90;99.90;;;;;;5033297;28;20052;-76
2023/06/06 06:15:23;;;;;;;0.20;0.20;;;11.00;99.90;;;;;;5033309;28;20057;-76
2023/06/06 06:17:49;;;;;;;0.20;0.20;;;11.10;99.90;;;;;;5032168;28;20025;-76
2023/06/06 06:20:16;;;;;;;0.20;0.20;;;11.30;99.90;;;;;;5033234;28;20030;-76
2023/06/06 06:22:43;;;;;;;0.20;0.20;;;11.40;99.90;;;;;;5032154;28;20072;-76
2023/06/06 06:25:12;;;;;;;0.20;0.20;;;11.50;99.90;;;;;;5032258;28;20044;-75
2023/06/06 06:27:41;;;;;;;0.20;0.20;;;11.40;99.90;;;;;;5033446;28;20025;-77
2023/06/06 06:30:09;;;;;;;0.20;0.20;;;11.40;99.90;;;;;;5032144;28;20021;-77
2023/06/06 06:32:37;;;;;;;0.10;0.10;;;11.50;99.90;;;;;;5031822;28;20033;-77
2023/06/06 06:35:04;;;;;;;0.20;0.20;;;11.80;99.90;;;;;;5033358;28;20036;-77
2023/06/06 06:37:30;;;;;;;0.20;0.20;;;12.10;99.90;;;;;;5031576;28;20077;-77
2023/06/06 06:39:57;;;;;;;0.20;0.20;;;12.30;99.90;;;;;;5033063;28;20017;-77
2023/06/06 06:42:23;;;;;;;0.20;0.20;;;12.50;99.90;;;;;;5033230;28;20025;-77
2023/06/06 06:44:49;;;;;;;0.10;0.10;;;12.70;99.90;;;;;;5031933;28;20022;-77
2023/06/06 06:47:14;;;;;;;0.20;0.20;;;12.90;99.90;;;;;;5033417;28;20041;-77
2023/06/06 06:49:41;;;;;;;0.20;0.20;;;13.10;99.90;;;;;;5032881;28;20573;-77
2023/06/06 06:52:15;;;;;;;0.20;0.20;;;13.10;99.90;;;;;;5032941;28;20053;-77
2023/06/06 06:54:53;;;;;;;0.20;0.20;;;13.10;99.90;;;;;;5032236;28;20057;-78
2023/06/06 06:57:20;;;;;;;0.10;0.10;;;13.00;99.90;;;;;;5032965;28;20028;-77
2023/06/06 06:59:46;;;;;;;0.20;0.20;;;13.10;99.90;;;;;;5031685;28;20037;-77
2023/06/06 07:02:11;;;;;;;0.20;0.20;;;13.10;99.90;;;;;;5032343;28;20025;-77
2023/06/06 07:04:37;;;;;;;0.20;0.20;;;13.30;99.90;;;;;;5032875;28;20036;-77
2023/06/06 07:07:03;;;;;;;0.20;0.20;;;13.20;99.90;;;;;;5027993;28;20033;-77
2023/06/06 07:09:28;;;;;;;0.20;0.20;;;13.40;99.90;;;;;;5032647;28;20026;-77
2023/06/06 07:11:54;;;;;;;0.20;0.20;;;13.70;99.90;;;;;;5012813;28;20033;-77
2023/06/06 07:14:20;;;;;;;0.20;0.20;;;13.60;99.90;;;;;;5014456;28;20076;-77
2023/06/06 07:16:48;;;;;;;0.10;0.10;;;13.80;99.90;;;;;;5017230;28;20052;-77
2023/06/06 07:19:13;;;;;;;0.20;0.20;;;13.90;99.90;;;;;;5016764;28;20052;-77
2023/06/06 07:21:39;;;;;;;0.17;0.17;;;13.90;99.90;;;;;;5016614;28;20099;-77
2023/06/06 07:24:05;;;;;;;0.20;0.20;;;14.00;99.90;;;;;;5044864;28;20029;-77
2023/06/06 07:26:30;;;;;;;0.13;0.13;;;14.10;99.90;;;;;;5016762;28;20018;-78
2023/06/06 07:28:56;;;;;;;0.20;0.20;;;14.40;99.90;;;;;;5017208;28;20458;-78
2023/06/06 07:31:22;;;;;;;0.17;0.17;;;14.80;99.90;;;;;;5016547;28;20022;-77
2023/06/06 07:33:48;;;;;;;0.10;0.10;;;14.90;99.90;;;;;;5017193;28;20053;-78
2023/06/06 07:36:13;;;;;;;0.20;0.20;;;15.00;99.90;;;;;;5017122;28;20022;-78
2023/06/06 07:38:39;;;;;;;0.20;0.20;;;15.40;99.90;;;;;;5048993;28;20022;-77
2023/06/06 07:41:04;;;;;;;0.20;0.20;;;15.40;99.90;;;;;;5016215;28;20033;-77
2023/06/06 07:43:30;;;;;;;0.13;0.13;;;15.30;99.90;;;;;;5033334;28;20033;-77
2023/06/06 07:45:56;;;;;;;0.20;0.20;;;15.20;99.90;;;;;;5036146;28;20021;-77
2023/06/06 07:48:21;;;;;;;0.20;0.20;;;15.40;99.90;;;;;;5034714;28;20025;-77
2023/06/06 07:50:47;;;;;;;0.20;0.20;;;15.40;99.90;;;;;;5034481;28;20055;-77
2023/06/06 07:53:13;;;;;;;0.10;0.10;;;15.50;99.90;;;;;;5038622;28;20387;-77
2023/06/06 07:55:38;;;;;;;0.20;0.20;;;15.50;99.90;;;;;;5038640;28;20026;-77
2023/06/06 07:58:10;;;;;;;0.10;0.10;;;15.80;99.90;;;;;;5036962;28;20041;-77
2023/06/06 08:00:36;;;;;;;0.20;0.20;;;16.10;99.90;;;;;;5039086;28;20029;-77
2023/06/06 08:03:01;;;;;;;0.20;0.20;;;16.10;99.90;;;;;;5037824;28;20025;-78
2023/06/06 08:05:27;;;;;;;0.20;0.20;;;16.20;99.90;;;;;;5037742;28;20036;-78
2023/06/06 08:07:53;;;;;;;0.10;0.10;;;16.30;99.90;;;;;;5037577;28;20029;-78
2023/06/06 08:10:18;;;;;;;0.10;0.10;;;16.40;99.90;;;;;;5038338;28;20108;-77
2023/06/06 08:12:45;;;;;;;0.10;0.10;;;16.50;99.90;;;;;;5038637;28;20033;-76
2023/06/06 08:15:10;;;;;;;0.10;0.10;;;16.70;99.90;;;;;;5035803;28;20052;-78
2023/06/06 08:17:36;;;;;;;0.20;0.20;;;16.70;99.90;;;;;;5037405;28;20100;-77
2023/06/06 08:20:06;;;;;;;0.20;0.20;;;16.60;99.90;;;;;;5035761;28;20112;-77
2023/06/06 08:22:33;;;;;;;0.10;0.10;;;16.60;99.90;;;;;;5038093;28;20105;-78
2023/06/06 08:25:04;;;;;;;0.10;0.10;;;16.70;99.90;;;;;;5036989;28;20017;-78
2023/06/06 08:27:30;;;;;;;0.20;0.20;;;16.90;99.90;;;;;;5037021;28;20056;-77
2023/06/06 08:29:56;;;;;;;0.10;0.10;;;17.00;99.90;;;;;;5034864;28;20026;-78
2023/06/06 08:32:21;;;;;;;0.10;0.10;;;17.10;99.90;;;;;;5039652;28;20036;-77
2023/06/06 08:34:47;;;;;;;0.20;0.20;;;17.20;99.90;;;;;;5038394;28;20038;-78
2023/06/06 08:37:13;;;;;;;0.10;0.10;;;17.40;99.90;;;;;;5037086;28;20046;-77
2023/06/06 08:39:39;;;;;;;0.10;0.10;;;17.70;99.90;;;;;;5036753;28;20087;-78
2023/06/06 08:42:09;;;;;;;0.10;0.10;;;17.90;99.90;;;;;;5041017;28;20037;-77
2023/06/06 08:44:35;;;;;;;0.10;0.10;;;18.10;99.90;;;;;;5042188;28;20052;-79
2023/06/06 08:47:02;;;;;;;0.10;0.10;;;18.20;99.90;;;;;;5045489;28;20018;-78
2023/06/06 08:49:30;;;;;;;0.10;0.10;;;18.00;99.90;;;;;;5037599;28;20067;-80
2023/06/06 08:51:58;;;;;;;0.10;0.10;;;18.20;99.90;;;;;;5039285;28;20108;-80
2023/06/06 08:54:25;;;;;;;0.10;0.10;;;18.10;99.90;;;;;;5041063;28;20040;-81
2023/06/06 08:56:51;;;;;;;0.10;0.10;;;18.30;99.90;;;;;;5047916;28;20021;-81
2023/06/06 08:59:18;;;;;;;0.20;0.20;;;18.20;99.90;;;;;;5052221;28;20025;-80
2023/06/06 09:01:47;;;;;;;0.20;0.20;;;18.30;99.90;;;;;;5051876;28;20097;-80
2023/06/06 09:04:15;;;;;;;0.10;0.10;;;18.50;99.90;;;;;;5049512;28;20629;-78
2023/06/06 09:06:44;;;;;;;0.10;0.10;;;18.50;99.90;;;;;;5049143;28;20029;-79
2023/06/06 09:09:11;;;;;;;0.10;0.10;;;18.70;99.90;;;;;;5035422;28;20439;-77
2023/06/06 09:11:37;;;;;;;0.10;0.10;;;18.40;99.90;;;;;;5035521;28;20395;-78
2023/06/06 09:14:05;;;;;;;0.10;0.10;;;18.40;99.90;;;;;;5039121;28;20022;-78
2023/06/06 09:16:31;;;;;;;0.13;0.13;;;18.30;99.90;;;;;;5035342;28;20097;-80
2023/06/06 09:18:58;;;;;;;0.10;0.10;;;18.50;99.90;;;;;;5036582;28;20499;-78
2023/06/06 09:21:28;;;;;;;0.10;0.10;;;18.50;99.90;;;;;;5037521;28;20018;-78
2023/06/06 09:23:54;;;;;;;0.10;0.10;;;18.50;99.90;;;;;;5036829;28;20021;-78
2023/06/06 09:26:21;;;;;;;0.10;0.10;;;18.80;99.90;;;;;;5037548;28;20026;-78
2023/06/06 09:28:47;;;;;;;0.20;0.20;;;19.10;99.90;;;;;;5036823;28;20025;-79
2023/06/06 09:31:37;;;;;;;0.10;0.10;;;18.90;99.90;;;;;;5037010;28;20111;-77
2023/06/06 09:34:03;;;;;;;0.10;0.10;;;18.70;99.90;;;;;;5037116;28;20105;-78
2023/06/06 09:36:29;;;;;;;0.10;0.10;;;18.70;99.90;;;;;;5039379;28;20032;-80
2023/06/06 09:39:12;;;;;;;0.17;0.17;;;18.90;99.90;;;;;;5036850;28;20029;-78
2023/06/06 09:41:48;;;;;;;0.10;0.10;;;19.20;99.90;;;;;;5028161;28;20033;-78
2023/06/06 09:44:24;;;;;;;0.10;0.10;;;19.20;99.90;;;;;;5015804;28;20053;-79
2023/06/06 09:47:03;;;;;;;0.10;0.10;;;19.20;99.90;;;;;;5021337;28;20026;-79
2023/06/06 09:49:35;;;;;;;0.20;0.20;;;18.90;99.90;;;;;;5034504;28;20121;-78
2023/06/06 09:52:02;;;;;;;0.10;0.10;;;19.00;99.90;;;;;;5035408;28;20025;-78
2023/06/06 09:54:29;;;;;;;0.20;0.20;;;19.20;99.90;;;;;;5034691;28;20533;-78
2023/06/06 09:56:55;;;;;;;0.10;0.10;;;19.20;99.90;;;;;;5035148;28;20205;-78
2023/06/06 09:59:25;;;;;;;0.20;0.20;;;19.30;99.90;;;;;;5035784;28;20025;-78
2023/06/06 10:01:57;;;;;;;0.10;0.10;;;19.40;99.90;;;;;;5035348;28;20017;-78
2023/06/06 10:04:24;;;;;;;0.10;0.10;;;19.40;99.90;;;;;;5036197;28;20034;-77
2023/06/06 10:06:51;;;;;;;0.10;0.10;;;19.50;99.90;;;;;;5034851;28;20072;-77
2023/06/06 10:09:17;;;;;;;0.10;0.10;;;19.50;99.90;;;;;;5035525;28;20026;-78
2023/06/06 10:11:43;;;;;;;0.20;0.20;;;19.70;99.90;;;;;;5036161;28;20029;-77
2023/06/06 10:14:10;;;;;;;0.10;0.10;;;19.70;99.90;;;;;;5033931;28;20059;-77
2023/06/06 10:16:35;;;;;;;0.17;0.17;;;19.80;99.90;;;;;;5034569;28;20030;-78
2023/06/06 10:19:03;;;;;;;0.10;0.10;;;19.60;99.90;;;;;;5035011;28;20022;-78
2023/06/06 10:21:30;;;;;;;0.10;0.10;;;19.80;99.90;;;;;;5035152;28;20032;-79
2023/06/06 10:23:56;;;;;;;0.10;0.10;;;19.80;99.90;;;;;;5033327;28;20022;-77
2023/06/06 10:26:27;;;;;;;0.10;0.10;;;19.80;99.90;;;;;;5035546;28;20021;-78
2023/06/06 10:29:01;;;;;;;0.10;0.10;;;19.90;99.90;;;;;;5035816;28;20030;-77
2023/06/06 10:31:53;;;;;;;0.10;0.10;;;20.00;99.90;;;;;;5034620;28;20029;-77
2023/06/06 10:34:24;;;;;;;0.10;0.10;;;20.00;99.90;;;;;;5028832;28;20044;-78
2023/06/06 10:36:51;;;;;;;0.10;0.10;;;20.20;99.90;;;;;;5035437;28;20029;-78
2023/06/06 10:39:22;;;;;;;0.10;0.10;;;20.20;99.90;;;;;;5035479;28;20036;-78
2023/06/06 10:42:07;;;;;;;0.10;0.10;;;20.30;99.90;;;;;;5035375;28;20034;-79
2023/06/06 10:44:42;;;;;;;0.10;0.10;;;20.20;99.90;;;;;;5034813;28;20422;-78
2023/06/06 10:47:32;;;;;;;0.15;0.15;;;20.20;99.90;;;;;;5032846;28;20059;-79
2023/06/06 10:50:13;;;;;;;0.10;0.10;;;20.60;99.90;;;;;;5038097;28;20026;-77
2023/06/06 10:53:06;;;;;;;0.10;0.10;;;20.60;99.90;;;;;;5038393;28;20030;-79
2023/06/06 10:55:32;;;;;;;0.10;0.10;;;20.60;99.90;;;;;;5037895;28;20025;-79
2023/06/06 10:58:15;;;;;;;0.10;0.10;;;20.50;99.90;;;;;;5038218;28;20024;-79
2023/06/06 11:00:45;;;;;;;0.10;0.10;;;20.50;99.90;;;;;;5037855;28;20116;-78
2023/06/06 11:03:13;;;;;;;0.10;0.10;;;20.50;99.90;;;;;;5036816;28;20116;-79
2023/06/06 11:06:01;;;;;;;0.10;0.10;;;20.40;99.90;;;;;;5036317;28;20552;-79
2023/06/06 11:08:46;;;;;;;0.10;0.10;;;20.80;99.90;;;;;;5037965;28;20498;-78
2023/06/06 11:11:19;;;;;;;0.10;0.10;;;21.10;99.90;;;;;;5037339;28;20021;-77
2023/06/06 11:14:01;;;;;;;0.10;0.10;;;21.20;99.90;;;;;;5038877;28;20033;-77
2023/06/06 11:16:51;;;;;;;0.10;0.10;;;21.10;99.90;;;;;;5038431;28;20113;-77
2023/06/06 11:19:19;;;;;;;0.10;0.10;;;21.30;99.90;;;;;;5039977;28;20098;-77
2023/06/06 11:21:47;;;;;;;0.10;0.10;;;21.50;99.90;;;;;;5039921;28;20021;-77
2023/06/06 11:24:13;;;;;;;0.10;0.10;;;21.50;99.90;;;;;;5036938;28;20032;-78
2023/06/06 11:26:41;;;;;;;0.10;0.10;;;21.40;99.90;;;;;;5038313;28;20029;-78
2023/06/06 11:29:10;;;;;;;0.10;0.10;;;21.40;99.90;;;;;;5038991;28;20025;-77
2023/06/06 11:31:38;;;;;;;0.10;0.10;;;21.50;99.90;;;;;;5038395;28;20459;-78
2023/06/06 11:34:07;;;;;;;0.10;0.10;;;21.80;99.90;;;;;;5038085;28;20387;-77
2023/06/06 11:36:35;;;;;;;0.10;0.10;;;21.90;99.90;;;;;;5036839;28;20025;-77
2023/06/06 11:39:03;;;;;;;0.10;0.10;;;21.90;99.90;;;;;;5038631;28;20029;-78
2023/06/06 11:41:29;;;;;;;0.10;0.10;;;22.00;99.90;;;;;;5038529;28;20035;-78
2023/06/06 11:43:55;;;;;;;0.10;0.10;;;21.70;99.90;;;;;;5038438;28;20025;-78
2023/06/06 11:46:20;;;;;;;0.10;0.10;;;21.40;99.90;;;;;;5038050;28;20029;-77
2023/06/06 11:48:47;;;;;;;0.10;0.10;;;21.40;99.90;;;;;;5037101;28;20181;-77
2023/06/06 11:51:13;;;;;;;0.20;0.20;;;21.70;99.90;;;;;;5036841;28;20471;-78
2023/06/06 11:53:39;;;;;;;0.10;0.10;;;21.60;99.90;;;;;;5038643;28;20498;-78
2023/06/06 11:56:05;;;;;;;0.10;0.10;;;22.00;99.90;;;;;;5037998;28;20033;-78
2023/06/06 11:58:33;;;;;;;0.10;0.10;;;22.10;99.90;;;;;;5038131;28;20420;-77
2023/06/06 12:00:59;;;;;;;0.10;0.10;;;22.50;99.90;;;;;;5036473;28;20145;-78
2023/06/06 12:03:27;;;;;;;0.10;0.10;;;22.30;99.90;;;;;;5038276;28;20026;-77
2023/06/06 12:06:01;;;;;;;0.10;0.10;;;22.40;99.90;;;;;;5036826;28;20167;-80
2023/06/06 12:08:27;;;;;;;0.10;0.10;;;22.60;99.90;;;;;;5036386;28;20076;-78
2023/06/06 12:10:53;;;;;;;0.10;0.10;;;22.40;99.90;;;;;;5039277;28;20029;-77
2023/06/06 12:13:31;;;;;;;0.10;0.10;;;22.40;99.90;;;;;;5037215;28;20026;-79
2023/06/06 12:15:57;;;;;;;0.10;0.10;;;22.30;99.90;;;;;;5037539;28;20017;-79
2023/06/06 12:18:23;;;;;;;0.10;0.10;;;22.60;99.90;;;;;;5038033;28;20028;-78
2023/06/06 12:20:49;;;;;;;0.10;0.10;;;22.70;99.90;;;;;;5036198;28;20497;-78
2023/06/06 12:23:27;;;;;;;0.10;0.10;;;22.80;99.90;;;;;;5037410;28;20026;-78
2023/06/06 12:25:55;;;;;;;0.10;0.10;;;23.40;99.90;;;;;;5037720;28;20021;-78
2023/06/06 12:28:20;;;;;;;0.00;0.00;;;22.90;99.90;;;;;;5036440;28;20053;-78
2023/06/06 12:30:51;;;;;;;0.10;0.10;;;23.10;99.90;;;;;;5038588;28;20415;-78
2023/06/06 12:33:20;;;;;;;0.10;0.10;;;23.00;99.90;;;;;;5037608;28;20026;-77
2023/06/06 12:35:48;;;;;;;0.10;0.10;;;23.00;99.90;;;;;;5037544;28;20033;-78
2023/06/06 12:38:21;;;;;;;0.05;0.05;;;23.40;99.90;;;;;;5037543;28;20026;-77
2023/06/06 12:40:55;;;;;;;0.10;0.10;;;23.50;99.90;;;;;;5037792;28;20036;-79
2023/06/06 12:43:21;;;;;;;;;;;23.60;99.90;;;;;;5037233;28;20022;-78
2023/06/06 12:45:46;;;;;;;0.08;0.08;;;24.00;99.90;;;;;;5036134;28;19912;-77
2023/06/06 12:48:12;;;;;;;0.00;0.00;;;23.90;99.90;;;;;;5036928;28;20079;-77
2023/06/06 12:50:40;;;;;;;0.00;0.00;;;23.90;99.90;;;;;;5035943;28;20041;-78
2023/06/06 12:53:07;;;;;;;0.00;0.00;;;24.00;99.90;;;;;;5035457;28;20083;-78